Airfield :
LOGIN :

Register | Disclaimer

   EN    FR    IT 

 










Legend :    VFR   Marginal VFR   IFR   Intensive IFR   Very Intensive IFR
Visi :
Ceiling :
>= 8 km
>= 3000ft
5 to 8 km
1000 to 3000 ft
1500m to 5 km
500 to 1000 ft
800 to 1500m
200 to 500 ft
< 800m
< 200 ft
Symbols :   Thunderstorms  Fog  Heavy snow  Heavy precipitations  Wind > 20 kt
SIGMETs :     Misc.  Thunderstorms  Icing  Turbulence  Mountain Waves  Volcanic Ashes






- Airport Elevation : 1416 ft
- IATA code : ZRH


LSZH - Zurich

CURRENT METAR :
  • 180420Z AUTO VRB02KT 8000 1500E FEW001 SCT048 M02/M02 Q1035 NOSIG

EXPIRED METARs :
  • 180350Z AUTO 23002KT 9999 3300N FEW020 BKN048 M02/M02 Q1035 NOSIG
  • 180320Z AUTO VRB01KT 9999 0550N R14/P2000N R16/P2000N R28/P2000N R34/P2000N BCFG FEW047 M02/M02 Q1035 NOSIG
  • 180250Z AUTO VRB03KT 8000 2800N FEW045 M02/M03 Q1035 NOSIG
  • 180220Z AUTO 34004KT 7000 1300N R14/P2000N R16/P2000N R28/P2000N R34/P2000N FEW047 M02/M02 Q1035 NOSIG
  • 180150Z AUTO VRB01KT 9999 1300N R14/P2000N R16/P2000N R28/P2000N R34/P2000N FEW046 M01/M02 Q1035 NOSIG

TAF TAF LSZH
Valid from the 18 at 03:00 until the 19 at 09:00 UTC


180225Z 1803/1909 VRB02KT 9999 FEW045 TX04/1814Z TNM01/1805Z TNM02/1906Z
BECMG 1803/1806 3500 BR
PROB40 1804/1809 1500 BCFG NSC
PROB30 1806/1809 0800 FZFG VV003
BECMG 1808/1811 06010KT BKN015
BECMG 1816/1820 VRB02KT BKN008
BECMG 1822/1901 4000 BR BKN004
PROB30 1903/1909 2000 BCFG
ATIS : +41 43 816 2295 (DEP) +41 43 816 2294 (ARR)



MET'MAP, your aeronautical weather chart ! - Copyright ORBIFLY December 2007 - Disclaimer

ORBIFLY MET'MAP TEAM :

Programming & Development : Alexandra Zaïnal
Concept & original design : Baudouin d'Aumeries
Assistance for programming : Marc-Olivier Méhu
Technical & hardware support : Manuel Goepfert

Contact : metmap@orbifly.com




SOURCES & CREDITS :

   NOAA